createdAt,value
2022-10-24T00:00:54.651Z,100030.13
2022-10-24T00:03:20.907Z,100018.00
2022-10-24T00:05:47.804Z,100022.47
2022-10-24T00:08:14.997Z,100018.00
2022-10-24T00:10:43.721Z,100024.47
2022-10-24T00:13:10.548Z,100019.63
2022-10-24T00:15:37.145Z,100021.66
2022-10-24T00:18:03.817Z,100011.16
2022-10-24T00:20:30.183Z,100010.34
2022-10-24T00:22:56.699Z,100007.53
2022-10-24T00:25:22.977Z,100003.47
2022-10-24T00:27:49.263Z,99998.63
2022-10-24T00:30:15.756Z,100003.47
2022-10-24T00:32:42.218Z,99995.78
2022-10-24T00:35:10.259Z,99998.19
2022-10-24T00:37:36.693Z,99997.38
2022-10-24T00:40:05.440Z,100000.22
2022-10-24T00:42:31.872Z,99999.78
2022-10-24T00:44:58.142Z,99996.16
2022-10-24T00:47:26.109Z,99992.94
2022-10-24T00:49:54.051Z,99988.88
2022-10-24T00:52:25.730Z,99973.94
2022-10-24T00:54:53.180Z,99975.97
2022-10-24T00:57:22.592Z,99981.63
2022-10-24T00:59:51.586Z,99985.66
2022-10-24T01:02:17.858Z,99983.63
2022-10-24T01:04:46.340Z,99986.44
2022-10-24T01:07:19.365Z,99990.09
2022-10-24T01:10:04.362Z,99992.09
2022-10-24T01:12:46.763Z,99975.59
2022-10-24T01:15:22.733Z,99968.34
2022-10-24T01:17:48.960Z,99963.94
2022-10-24T01:20:34.243Z,99963.53
2022-10-24T01:23:26.346Z,99959.13
2022-10-24T01:26:07.634Z,99954.31
2022-10-24T01:28:45.932Z,99951.94
2022-10-24T01:31:16.169Z,99948.31
2022-10-24T01:33:49.303Z,99950.34
2022-10-24T01:36:20.092Z,99953.16
2022-10-24T01:38:54.230Z,99943.09
2022-10-24T01:41:21.445Z,99941.06
2022-10-24T01:44:02.636Z,99945.91
2022-10-24T01:46:31.876Z,99939.03
2022-10-24T01:49:14.528Z,99942.31
2022-10-24T01:51:41.943Z,99924.56
2022-10-24T01:54:10.831Z,99927.00
2022-10-24T01:56:37.145Z,99922.13
2022-10-24T01:59:07.509Z,99929.03
2022-10-24T02:01:35.311Z,99915.69
2022-10-24T02:04:03.628Z,99916.50
2022-10-24T02:06:32.202Z,99910.84
2022-10-24T02:11:32.718Z,99907.97
2022-10-24T02:14:05.006Z,99905.94
2022-10-24T02:16:31.737Z,99896.63
2022-10-24T02:18:59.061Z,99908.28
2022-10-24T02:21:38.048Z,99896.97
2022-10-24T02:24:15.323Z,99892.13
2022-10-24T02:26:47.714Z,99886.06
2022-10-24T02:29:16.119Z,99900.53
2022-10-24T02:31:47.313Z,99886.78
2022-10-24T02:34:14.975Z,99883.53
2022-10-24T02:36:44.520Z,99881.06
2022-10-24T02:39:11.650Z,99874.97
2022-10-24T02:41:40.500Z,99875.38
2022-10-24T02:44:07.670Z,99872.09
2022-10-24T02:46:34.626Z,99865.59
2022-10-24T02:49:02.316Z,99873.63
2022-10-24T02:51:33.542Z,99872.78
2022-10-24T02:54:00.445Z,99874.38
2022-10-24T02:56:26.893Z,99875.97
2022-10-24T02:58:53.159Z,99874.72
2022-10-24T03:01:19.536Z,99878.34
2022-10-24T03:03:46.080Z,99884.00
2022-10-24T03:06:12.632Z,99875.53
2022-10-24T03:08:39.499Z,99874.72
2022-10-24T03:11:05.818Z,99873.53
2022-10-24T03:13:32.775Z,99861.38
2022-10-24T03:15:59.386Z,99872.28
2022-10-24T03:18:25.851Z,99875.91
2022-10-24T03:20:52.302Z,99868.22
2022-10-24T03:23:19.964Z,99853.28
2022-10-24T03:25:46.426Z,99857.72
2022-10-24T03:28:12.706Z,99864.16
2022-10-24T03:30:39.118Z,99858.94
2022-10-24T03:33:05.409Z,99867.00
2022-10-24T03:35:31.774Z,99868.22
2022-10-24T03:37:58.254Z,99873.88
2022-10-24T03:40:24.540Z,99870.25
2022-10-24T03:42:50.973Z,99871.03
2022-10-24T03:45:17.376Z,99875.91
2022-10-24T03:47:43.634Z,99872.28
2022-10-24T03:50:09.899Z,99869.47
2022-10-24T03:52:37.155Z,99864.59
2022-10-24T03:55:03.511Z,99864.59
2022-10-24T03:57:29.889Z,99861.78
2022-10-24T03:59:56.245Z,99858.94
2022-10-24T04:02:22.661Z,99870.25
2022-10-24T04:04:48.979Z,99879.97
2022-10-24T04:07:15.211Z,99876.34
2022-10-24T04:09:42.076Z,99877.56
2022-10-24T04:12:08.314Z,99882.00
2022-10-24T04:14:34.832Z,99878.78
2022-10-24T04:17:01.482Z,99879.59
2022-10-24T04:19:27.721Z,99866.25
2022-10-24T04:21:54.146Z,99876.75
2022-10-24T04:24:20.388Z,99890.88
2022-10-24T04:26:47.743Z,99878.44
2022-10-24T04:29:14.173Z,99882.06
2022-10-24T04:31:40.428Z,99881.66
2022-10-24T04:34:06.805Z,99885.31
2022-10-24T04:36:33.879Z,99876.47
2022-10-24T04:41:31.571Z,99883.69
2022-10-24T04:43:57.993Z,99871.59
2022-10-24T04:46:24.306Z,99870.81
2022-10-24T04:48:50.587Z,99871.25
2022-10-24T04:51:19.989Z,99870.44
2022-10-24T04:53:48.756Z,99873.28
2022-10-24T04:56:15.181Z,99882.16
2022-10-24T04:58:41.581Z,99877.69
2022-10-24T05:01:08.138Z,99872.91
2022-10-24T05:03:36.670Z,99860.34
2022-10-24T05:06:03.015Z,99858.75
2022-10-24T05:08:29.294Z,99850.28
2022-10-24T05:10:55.564Z,99858.84
2022-10-24T05:13:21.992Z,99861.25
2022-10-24T05:15:48.293Z,99865.31
2022-10-24T05:18:14.647Z,99874.97
2022-10-24T05:23:12.508Z,99868.91
2022-10-24T05:25:39.191Z,99878.63
2022-10-24T05:28:06.003Z,99879.44
2022-10-24T05:30:32.380Z,99884.28
2022-10-24T05:32:58.843Z,99885.06
2022-10-24T05:35:25.054Z,99878.63
2022-10-24T05:37:51.420Z,99878.25
2022-10-24T05:40:17.797Z,99877.44
2022-10-24T05:42:44.453Z,99878.25
2022-10-24T05:45:11.011Z,99882.75
2022-10-24T05:47:37.445Z,99881.91
2022-10-24T05:50:04.306Z,99874.69
2022-10-24T05:52:30.554Z,99878.75
2022-10-24T05:55:06.760Z,99879.97
2022-10-24T05:57:34.332Z,99875.56
2022-10-24T06:00:00.747Z,99886.84
2022-10-24T06:02:27.139Z,99882.41
2022-10-24T06:04:55.352Z,99890.53
2022-10-24T06:07:21.703Z,99897.41
2022-10-24T06:09:47.978Z,99893.00
2022-10-24T06:12:14.313Z,99899.06
2022-10-24T06:14:40.881Z,99900.28
2022-10-24T06:17:09.129Z,99901.09
2022-10-24T06:19:36.710Z,99913.97
2022-10-24T06:22:03.373Z,99913.97
2022-10-24T06:24:29.801Z,99922.03
2022-10-24T06:26:56.090Z,99911.53
2022-10-24T06:29:22.313Z,99916.75
2022-10-24T06:31:49.540Z,99914.72
2022-10-24T06:34:15.797Z,99911.91
2022-10-24T06:36:42.282Z,99915.09
2022-10-24T06:39:08.682Z,99925.63
2022-10-24T06:41:34.914Z,99936.81
2022-10-24T06:44:02.737Z,99929.59
2022-10-24T06:46:29.120Z,99930.78
2022-10-24T06:48:56.060Z,99942.88
2022-10-24T06:51:22.974Z,99934.31
2022-10-24T06:53:49.586Z,99937.97
2022-10-24T06:56:17.879Z,99934.69
2022-10-24T06:58:45.737Z,99938.69
2022-10-24T07:01:15.121Z,99939.06
2022-10-24T07:03:42.074Z,99945.06
2022-10-24T07:06:17.182Z,99956.75
2022-10-24T07:08:44.023Z,99948.63
2022-10-24T07:11:10.658Z,99951.81
2022-10-24T07:13:37.015Z,99954.59
2022-10-24T07:16:03.684Z,99965.50
2022-10-24T07:18:29.925Z,99971.06
2022-10-24T07:21:00.639Z,99972.25
2022-10-24T07:23:27.333Z,99973.41
2022-10-24T07:25:53.964Z,99974.97
2022-10-24T07:28:20.346Z,99977.38
2022-10-24T07:30:46.645Z,99975.66
2022-10-24T07:33:13.133Z,99979.22
2022-10-24T07:35:43.298Z,99979.50
2022-10-24T07:38:09.956Z,99980.59
2022-10-24T07:40:36.205Z,99983.72
2022-10-24T07:43:02.625Z,99981.19
2022-10-24T07:45:29.864Z,99983.13
2022-10-24T07:47:56.138Z,99977.41
2022-10-24T07:50:22.415Z,99972.81
2022-10-24T07:52:48.813Z,99977.97
2022-10-24T07:55:15.172Z,99983.13
2022-10-24T07:57:41.726Z,99973.69
2022-10-24T08:00:08.328Z,99990.56
2022-10-24T08:02:35.687Z,99975.47
2022-10-24T08:05:03.020Z,99966.84
2022-10-24T08:07:30.144Z,99978.00
2022-10-24T08:09:56.441Z,99974.13
2022-10-24T08:12:22.866Z,99979.66
2022-10-24T08:14:49.569Z,99981.88
2022-10-24T08:17:19.962Z,99975.63
2022-10-24T08:19:47.651Z,99975.47
2022-10-24T08:22:14.015Z,99981.78
2022-10-24T08:24:42.196Z,99979.66
2022-10-24T08:27:08.628Z,99982.03
2022-10-24T08:29:35.015Z,99975.50
2022-10-24T08:32:01.610Z,99983.22
2022-10-24T08:34:28.045Z,99991.72
2022-10-24T08:36:54.586Z,99990.91
2022-10-24T08:39:21.314Z,99984.00
2022-10-24T08:41:50.414Z,99991.63
2022-10-24T08:44:21.263Z,99993.16
2022-10-24T08:46:56.873Z,99995.78
2022-10-24T08:49:26.260Z,99997.69
2022-10-24T08:52:01.601Z,100001.56
2022-10-24T08:54:46.341Z,100000.59
2022-10-24T08:57:24.660Z,100001.31
2022-10-24T08:59:53.244Z,100008.81
2022-10-24T09:02:24.904Z,100006.34
2022-10-24T09:04:54.627Z,100011.56
2022-10-24T09:07:21.828Z,100008.75
2022-10-24T09:09:56.447Z,100019.75
2022-10-24T09:12:22.863Z,100017.78
2022-10-24T09:14:57.309Z,100015.41
2022-10-24T09:17:25.708Z,100021.50
2022-10-24T09:19:59.078Z,100022.84
2022-10-24T09:22:27.046Z,100013.63
2022-10-24T09:24:56.066Z,100014.50
2022-10-24T09:27:30.511Z,100018.31
2022-10-24T09:29:57.322Z,100024.00
2022-10-24T09:32:30.669Z,100028.94
2022-10-24T09:35:04.805Z,100024.16
2022-10-24T09:37:42.817Z,100026.19
2022-10-24T09:40:16.322Z,100027.06
2022-10-24T09:42:50.960Z,100029.53
2022-10-24T09:45:28.064Z,100039.72
2022-10-24T09:47:58.039Z,100034.16
2022-10-24T09:50:24.695Z,100038.22
2022-10-24T09:52:52.416Z,100054.84
2022-10-24T09:55:24.320Z,100054.50
2022-10-24T09:57:55.255Z,100057.34
2022-10-24T10:00:26.763Z,100063.06
2022-10-24T10:02:57.350Z,100070.34
2022-10-24T10:05:23.691Z,100063.53
2022-10-24T10:07:50.884Z,100063.94
2022-10-24T10:10:25.746Z,100065.56
2022-10-24T10:12:56.535Z,100063.06
2022-10-24T10:15:31.111Z,100058.22
2022-10-24T10:17:59.672Z,100071.06
2022-10-24T10:20:40.882Z,100064.94
2022-10-24T10:23:27.456Z,100062.50
2022-10-24T10:26:02.082Z,100062.84
2022-10-24T10:28:28.345Z,100072.50
2022-10-24T10:30:59.586Z,100074.09
2022-10-24T10:33:39.042Z,100064.72
2022-10-24T10:36:05.530Z,100081.28
2022-10-24T10:38:49.989Z,100080.84
2022-10-24T10:41:16.262Z,100083.22
2022-10-24T10:43:42.530Z,100088.47
2022-10-24T10:46:14.887Z,100096.06
2022-10-24T10:48:44.473Z,100096.91
2022-10-24T10:51:16.726Z,100092.44
2022-10-24T10:54:01.857Z,100100.88
2022-10-24T10:56:34.889Z,100107.72
2022-10-24T10:59:29.412Z,100105.69
2022-10-24T11:02:02.938Z,100099.91
2022-10-24T11:04:45.891Z,100098.25
2022-10-24T11:07:21.053Z,100097.78
2022-10-24T11:10:07.677Z,100109.06
2022-10-24T11:12:38.908Z,100100.09
2022-10-24T11:15:05.225Z,100112.63
2022-10-24T11:17:40.089Z,100115.78
2022-10-24T11:20:16.420Z,100114.91
2022-10-24T11:22:53.236Z,100114.47
2022-10-24T11:25:35.377Z,100120.94
2022-10-24T11:28:20.469Z,100119.28
2022-10-24T11:30:52.742Z,100107.47
2022-10-24T11:33:22.096Z,100111.47
2022-10-24T11:35:55.704Z,100114.31
2022-10-24T11:38:23.829Z,100114.66
2022-10-24T11:40:58.638Z,100117.50
2022-10-24T11:43:28.623Z,100120.34
2022-10-24T11:46:13.818Z,100119.53
2022-10-24T11:51:21.855Z,100134.25
2022-10-24T11:54:01.753Z,100134.31
2022-10-24T11:56:31.212Z,100137.25
2022-10-24T11:58:59.891Z,100140.09
2022-10-24T12:01:47.426Z,100141.75
2022-10-24T12:04:38.859Z,100143.00
2022-10-24T12:07:10.981Z,100140.16
2022-10-24T12:09:55.480Z,100143.88
2022-10-24T12:12:21.721Z,100144.31
2022-10-24T12:15:02.247Z,100155.75
2022-10-24T12:17:36.680Z,100156.19
2022-10-24T12:20:05.722Z,100151.75
2022-10-24T12:22:35.321Z,100148.09
2022-10-24T12:25:17.232Z,100155.00
2022-10-24T12:27:43.696Z,100142.88
2022-10-24T12:30:10.037Z,100152.25
2022-10-24T12:32:40.734Z,100161.22
2022-10-24T12:35:30.355Z,100159.25
2022-10-24T12:38:01.562Z,100149.59
2022-10-24T12:40:43.169Z,100154.47
2022-10-24T12:43:29.020Z,100155.25
2022-10-24T12:45:55.991Z,100156.84
2022-10-24T12:48:32.814Z,100156.44
2022-10-24T12:51:00.606Z,100157.22
2022-10-24T12:53:34.973Z,100156.34
2022-10-24T12:56:07.735Z,100156.34
2022-10-24T12:58:34.735Z,100167.66
2022-10-24T13:01:03.737Z,100165.63
2022-10-24T13:03:48.551Z,100163.59
2022-10-24T13:06:14.834Z,100166.06
2022-10-24T13:08:44.280Z,100162.91
2022-10-24T13:11:33.922Z,100155.25
2022-10-24T13:14:03.009Z,100155.78
2022-10-24T13:16:36.040Z,100151.41
2022-10-24T13:19:05.110Z,100160.44
2022-10-24T13:21:47.229Z,100156.88
2022-10-24T13:24:16.659Z,100156.13
2022-10-24T13:26:46.780Z,100160.66
2022-10-24T13:29:35.836Z,100143.69
2022-10-24T13:32:05.242Z,100134.84
2022-10-24T13:34:50.091Z,100136.06
2022-10-24T13:37:22.056Z,100140.13
2022-10-24T13:39:53.325Z,100146.19
2022-10-24T13:42:25.297Z,100139.28
2022-10-24T13:44:54.376Z,100127.50
2022-10-24T13:47:33.082Z,100145.28
2022-10-24T13:50:13.096Z,100129.13
2022-10-24T13:52:46.858Z,100147.31
2022-10-24T13:55:33.253Z,100141.66
2022-10-24T13:58:00.951Z,100141.66
2022-10-24T14:00:31.724Z,100142.91
2022-10-24T14:03:01.026Z,100147.78
2022-10-24T14:05:33.124Z,100145.28
2022-10-24T14:08:00.371Z,100142.06
2022-10-24T14:10:26.989Z,100145.25
2022-10-24T14:12:57.232Z,100152.06
2022-10-24T14:15:25.958Z,100148.03
2022-10-24T14:17:56.760Z,100148.38
2022-10-24T14:20:24.500Z,100148.38
2022-10-24T14:22:50.884Z,100155.63
2022-10-24T14:25:46.818Z,100152.00
2022-10-24T14:28:17.452Z,100149.53
2022-10-24T14:30:53.999Z,100141.03
2022-10-24T14:33:22.876Z,100143.06
2022-10-24T14:35:55.238Z,100146.72
2022-10-24T14:38:24.782Z,100141.84
2022-10-24T14:41:06.339Z,100150.34
2022-10-24T14:43:35.043Z,100150.34
2022-10-24T14:46:13.682Z,100153.97
2022-10-24T14:48:42.509Z,100151.94
2022-10-24T14:51:24.467Z,100147.06
2022-10-24T14:53:51.056Z,100149.81
2022-10-24T14:56:28.649Z,100155.50
2022-10-24T14:58:56.552Z,100155.84
2022-10-24T15:01:24.042Z,100160.72
2022-10-24T15:03:51.760Z,100160.38
2022-10-24T15:06:24.338Z,100158.75
2022-10-24T15:09:03.879Z,100170.09
2022-10-24T15:11:37.577Z,100166.91
2022-10-24T15:14:07.426Z,100172.56
2022-10-24T15:16:35.671Z,100173.81
2022-10-24T15:19:04.197Z,100178.69
2022-10-24T15:21:38.910Z,100175.06
2022-10-24T15:24:05.753Z,100177.09
2022-10-24T15:26:40.744Z,100166.97
2022-10-24T15:29:13.254Z,100171.03
2022-10-24T15:31:40.695Z,100171.47
2022-10-24T15:34:11.605Z,100158.56
2022-10-24T15:36:42.478Z,100170.31
2022-10-24T15:39:12.481Z,100169.97
2022-10-24T15:41:39.393Z,100183.75
2022-10-24T15:44:06.731Z,100201.59
2022-10-24T15:46:33.354Z,100218.22
2022-10-24T15:48:59.685Z,100215.03
2022-10-24T15:51:26.157Z,100207.50
2022-10-24T15:53:54.093Z,100215.66
2022-10-24T15:56:20.325Z,100215.44
2022-10-24T16:01:39.832Z,100218.22
2022-10-24T16:04:10.234Z,100199.81
2022-10-24T16:06:40.134Z,100217.78
2022-10-24T16:09:08.668Z,100230.06
2022-10-24T16:11:34.895Z,100221.31
2022-10-24T16:14:02.719Z,100225.91
2022-10-24T16:16:29.448Z,100221.22
2022-10-24T16:18:55.667Z,100225.38
2022-10-24T16:21:22.588Z,100227.47
2022-10-24T16:26:23.071Z,100244.25
2022-10-24T16:28:49.385Z,100237.47
2022-10-24T16:31:18.525Z,100245.97
2022-10-24T16:33:45.791Z,100250.06
2022-10-24T16:36:12.266Z,100260.59
2022-10-24T16:38:38.510Z,100264.69
2022-10-24T16:41:04.957Z,100263.13
2022-10-24T16:43:31.354Z,100261.16
2022-10-24T16:46:02.134Z,100252.75
2022-10-24T16:48:28.943Z,100256.41
2022-10-24T16:50:55.349Z,100252.84
2022-10-24T16:53:22.182Z,100254.91
2022-10-24T16:55:52.505Z,100258.56
2022-10-24T16:58:19.551Z,100268.69
2022-10-24T17:00:46.603Z,100273.16
2022-10-24T17:03:12.955Z,100274.81
2022-10-24T17:05:40.481Z,100274.84
2022-10-24T17:08:06.908Z,100283.72
2022-10-24T17:10:33.273Z,100285.38
2022-10-24T17:13:00.916Z,100281.78
2022-10-24T17:15:27.317Z,100281.41
2022-10-24T17:17:53.568Z,100281.44
2022-10-24T17:20:19.808Z,100284.28
2022-10-24T17:22:46.566Z,100288.75
2022-10-24T17:25:31.318Z,100289.97
2022-10-24T17:27:57.716Z,100284.34
2022-10-24T17:30:25.674Z,100294.06
2022-10-24T17:32:52.473Z,100290.47
2022-10-24T17:35:20.712Z,100290.13
2022-10-24T17:37:52.599Z,100284.91
2022-10-24T17:40:20.452Z,100293.41
2022-10-24T17:42:49.809Z,100292.22
2022-10-24T17:45:16.397Z,100303.13
2022-10-24T17:47:43.071Z,100297.91
2022-10-24T17:50:10.116Z,100295.88
2022-10-24T17:52:39.976Z,100297.91
2022-10-24T17:55:18.249Z,100295.88
2022-10-24T17:57:54.241Z,100291.47
2022-10-24T18:00:20.525Z,100293.47
2022-10-24T18:02:48.070Z,100298.31
2022-10-24T18:05:14.661Z,100297.53
2022-10-24T18:07:41.175Z,100300.34
2022-10-24T18:10:07.815Z,100306.38
2022-10-24T18:12:35.567Z,100301.53
2022-10-24T18:15:02.183Z,100302.34
2022-10-24T18:17:29.008Z,100313.63
2022-10-24T18:19:55.237Z,100317.66
2022-10-24T18:22:21.506Z,100321.28
2022-10-24T18:24:47.845Z,100335.41
2022-10-24T18:27:14.138Z,100341.03
2022-10-24T18:32:14.451Z,100353.97
2022-10-24T18:34:41.484Z,100346.72
2022-10-24T18:37:08.517Z,100348.34
2022-10-24T18:39:34.916Z,100372.16
2022-10-24T18:42:05.471Z,100370.53
2022-10-24T18:44:33.548Z,100377.38
2022-10-24T18:47:01.756Z,100374.97
2022-10-24T18:49:28.673Z,100361.28
2022-10-24T18:52:03.996Z,100364.50
2022-10-24T18:54:30.659Z,100363.31
2022-10-24T18:56:57.511Z,100375.44
2022-10-24T18:59:23.872Z,100366.16
2022-10-24T19:02:00.660Z,100376.28
2022-10-24T19:04:27.096Z,100379.53
2022-10-24T19:06:56.030Z,100372.28
2022-10-24T19:09:23.443Z,100375.13
2022-10-24T19:11:50.941Z,100375.56
2022-10-24T19:14:17.458Z,100372.31
2022-10-24T19:16:46.679Z,100366.31
2022-10-24T19:19:14.627Z,100369.94
2022-10-24T19:21:40.962Z,100370.34
2022-10-24T19:24:07.546Z,100370.78
2022-10-24T19:26:33.905Z,100355.50
2022-10-24T19:29:03.486Z,100359.13
2022-10-24T19:31:32.077Z,100368.44
2022-10-24T19:33:58.730Z,100367.25
2022-10-24T19:36:28.150Z,100362.81
2022-10-24T19:38:55.482Z,100359.59
2022-10-24T19:41:22.111Z,100354.38
2022-10-24T19:43:48.390Z,100369.28
2022-10-24T19:46:19.795Z,100355.19
2022-10-24T19:48:49.213Z,100354.41
2022-10-24T19:51:16.410Z,100346.38
2022-10-24T19:53:43.353Z,100348.75
2022-10-24T19:56:14.362Z,100344.75
2022-10-24T19:58:41.408Z,100343.97
2022-10-24T20:01:09.648Z,100342.75
2022-10-24T20:03:36.467Z,100341.53
2022-10-24T20:06:02.738Z,100341.94
2022-10-24T20:08:28.993Z,100343.53
2022-10-24T20:10:55.322Z,100334.28
2022-10-24T20:13:21.926Z,100336.31
2022-10-24T20:15:58.401Z,100348.38
2022-10-24T20:18:26.667Z,100343.56
2022-10-24T20:20:53.196Z,100344.75
2022-10-24T20:23:20.872Z,100351.19
2022-10-24T20:25:47.758Z,100341.94
2022-10-24T20:28:14.012Z,100354.03
2022-10-24T20:30:42.187Z,100358.84
2022-10-24T20:33:08.483Z,100368.47
2022-10-24T20:35:35.027Z,100369.69
2022-10-24T20:38:01.325Z,100370.50
2022-10-24T20:40:27.619Z,100368.47
2022-10-24T20:42:54.164Z,100374.91
2022-10-24T20:45:22.979Z,100370.91
2022-10-24T20:47:49.755Z,100390.63
2022-10-24T20:50:16.128Z,100389.41
2022-10-24T20:52:42.468Z,100404.28
2022-10-24T20:55:19.638Z,100430.81
2022-10-24T20:57:55.122Z,100414.34
2022-10-24T21:00:21.503Z,100419.97
2022-10-24T21:02:50.356Z,100424.00
2022-10-24T21:05:16.795Z,100420.38
2022-10-24T21:07:43.040Z,100415.16
2022-10-24T21:10:09.537Z,100418.34
2022-10-24T21:12:35.882Z,100421.16
2022-10-24T21:15:02.101Z,100425.59
2022-10-24T21:17:28.547Z,100423.16
2022-10-24T21:19:54.953Z,100427.59
2022-10-24T21:22:21.230Z,100436.44
2022-10-24T21:24:47.448Z,100433.22
2022-10-24T21:27:13.862Z,100430.81
2022-10-24T21:29:40.127Z,100434.03
2022-10-24T21:32:06.511Z,100442.91
2022-10-24T21:34:34.589Z,100446.91
2022-10-24T21:37:01.518Z,100450.94
2022-10-24T21:39:27.852Z,100452.94
2022-10-24T21:41:54.098Z,100456.97
2022-10-24T21:44:23.146Z,100461.00
2022-10-24T21:46:52.083Z,100450.16
2022-10-24T21:49:18.551Z,100453.34
2022-10-24T21:51:46.860Z,100449.75
2022-10-24T21:54:19.975Z,100452.16
2022-10-24T21:56:46.392Z,100454.56
2022-10-24T21:59:14.523Z,100457.81
2022-10-24T22:01:41.777Z,100450.19
2022-10-24T22:04:08.298Z,100455.41
2022-10-24T22:06:35.332Z,100455.81
2022-10-24T22:09:02.151Z,100460.25
2022-10-24T22:11:29.643Z,100457.00
2022-10-24T22:13:55.970Z,100459.44
2022-10-24T22:16:23.708Z,100455.41
2022-10-24T22:18:50.202Z,100466.28
2022-10-24T22:21:26.999Z,100464.25
2022-10-24T22:23:55.557Z,100463.84
2022-10-24T22:26:21.899Z,100470.69
2022-10-24T22:28:49.115Z,100467.88
2022-10-24T22:31:15.774Z,100463.03
2022-10-24T22:33:43.278Z,100462.25
2022-10-24T22:36:44.869Z,100468.28
2022-10-24T22:39:15.834Z,100466.66
2022-10-24T22:41:42.679Z,100462.66
2022-10-24T22:44:11.918Z,100465.47
2022-10-24T22:46:52.649Z,100467.06
2022-10-24T22:49:37.685Z,100467.06
2022-10-24T22:52:04.168Z,100477.53
2022-10-24T22:54:34.092Z,100472.31
2022-10-24T22:57:00.678Z,100467.06
2022-10-24T22:59:27.297Z,100464.66
2022-10-24T23:02:05.405Z,100473.91
2022-10-24T23:04:54.708Z,100479.56
2022-10-24T23:07:27.438Z,100481.97
2022-10-24T23:09:54.119Z,100489.59
2022-10-24T23:12:21.779Z,100487.59
2022-10-24T23:14:48.866Z,100496.03
2022-10-24T23:17:25.568Z,100493.22
2022-10-24T23:19:52.611Z,100501.69
2022-10-24T23:22:26.883Z,100500.88
2022-10-24T23:24:54.600Z,100513.75
2022-10-24T23:27:26.237Z,100512.13
2022-10-24T23:29:52.618Z,100514.56
2022-10-24T23:32:20.722Z,100518.97
2022-10-24T23:34:47.563Z,100508.09
2022-10-24T23:37:23.675Z,100512.13
2022-10-24T23:39:50.267Z,100513.31
2022-10-24T23:42:16.634Z,100516.97
2022-10-24T23:44:43.230Z,100512.09
2022-10-24T23:47:19.344Z,100508.88
2022-10-24T23:49:50.610Z,100522.16
2022-10-24T23:52:25.740Z,100519.72
2022-10-24T23:54:52.293Z,100518.53
2022-10-24T23:57:19.696Z,100524.56
2022-10-24T23:59:46.254Z,100524.16
